Frederike Selmer — V7QY8 — position and weather

sailwx.info

Track history (hours):
 
Tides and Currents Weather Stations Pressure Air Temp Water Temp Dewpoint Dewpoint Depression Visibility Wind Speed Wind Dir Waves Ship Positions

Frederike Selmer

Last reported at 2016-May-27 00:32 UTC. Time now 2016-May-31 03:55 UTC.
Position N 01°16' E 104°06'.

Length 188 m; draft 12.8 m.

Type: Cargo ship. MMSI: 538090377.

Date/timePositionNaut miles runAvg speedWind from/ knotsBaromVisibWave heightAir tempDewpointWater temp
2016-May-27 00:32N 01°16' E 104°06'7 6.8
2016-May-26 23:29N 01°17' E 103°59'0 0.0
2016-May-26 21:14N 01°17' E 103°59'0 0.0
2016-May-26 20:23N 01°17' E 103°59'0 0.0
2016-May-26 19:05N 01°17' E 103°59'0 0.1
2016-May-26 18:05N 01°17' E 103°59'0 0.1
2016-May-26 17:11N 01°17' E 103°59'0 0.2
2016-May-26 16:23N 01°17' E 103°59'0 0.1
2016-May-26 15:29N 01°17' E 103°59'0 0.1
2016-May-26 14:32N 01°17' E 103°59'2 2.2
2016-May-26 13:33N 01°15' E 103°57'3 2.7
2016-May-26 12:33N 01°13' E 103°55'6 6.3
2016-May-26 11:33N 01°11' E 103°50'7 7.3
2016-May-26 10:33N 01°06' E 103°44'7 7.0
2016-May-26 09:32N 01°03' E 103°38'8311.9
2016-May-26 02:32N 01°48' E 102°27'  
Track history (hours):
 
Tides and Currents Weather Stations Pressure Air Temp Water Temp Dewpoint Dewpoint Depression Visibility Wind Speed Wind Dir Waves Ship Positions

Frederike Selmer

Last reported at 2016-May-27 00:32 UTC. Time now 2016-May-31 03:55 UTC.
Position N 01°16' E 104°06'.

Length 188 m; draft 12.8 m.

Type: Cargo ship. MMSI: 538090377.

Date/timePositionNaut miles runAvg speedWind from/ knotsBaromVisibWave heightAir tempDewpointWater temp
2016-May-27 00:32N 01°16' E 104°06'7 6.8
2016-May-26 23:29N 01°17' E 103°59'0 0.0
2016-May-26 21:14N 01°17' E 103°59'0 0.0
2016-May-26 20:23N 01°17' E 103°59'0 0.0
2016-May-26 19:05N 01°17' E 103°59'0 0.1
2016-May-26 18:05N 01°17' E 103°59'0 0.1
2016-May-26 17:11N 01°17' E 103°59'0 0.2
2016-May-26 16:23N 01°17' E 103°59'0 0.1
2016-May-26 15:29N 01°17' E 103°59'0 0.1
2016-May-26 14:32N 01°17' E 103°59'2 2.2
2016-May-26 13:33N 01°15' E 103°57'3 2.7
2016-May-26 12:33N 01°13' E 103°55'6 6.3
2016-May-26 11:33N 01°11' E 103°50'7 7.3
2016-May-26 10:33N 01°06' E 103°44'7 7.0
2016-May-26 09:32N 01°03' E 103°38'8311.9
2016-May-26 02:32N 01°48' E 102°27'  

Dump ship's entire track history